Terminal Aerodrome Forecast
Issued by NWS

Home | Current Version | Previous Version | Graphics & Text | Print | Product List | Glossary On
Versions: 1 2 3 4 5 6 7 8 9 10 11 12 13 14 15 16
000
FTUS42 KMHX 172300 RRA
TAFOAJ
TAF
KOAJ 172341Z 1800/1824 05003KT P6SM VCSH OVC035
     FM180430 03003KT 5SM BR SCT005 BKN025
     FM180600 02002KT 3SM BR SCT001 BKN010
     FM181300 04007KT P6SM VCSH BKN035
      AMD LTD TO CLD VIS AND WIND=

USA.gov is the U.S. government's official web portal to all federal, state and local government web resources and services.